Terminal Aerodrome Forecast
Issued by NWS Wilmington, OH

Home | Current Version | Previous Version | Text Only | Print | Product List | Glossary On
Versions: 1 2 3 4 5 6 7 8 9 10 11 12 13 14 15 16 17 18 19 20 21
000
FTUS41 KILN 021733
TAFDAY
TAF
KDAY 021733Z 0218/0318 25012G18KT P6SM FEW050 SCT250
     FM030000 21009KT P6SM SCT200
     FM031000 22012KT P6SM VCTS BKN040CB
     FM031400 25013G21KT P6SM VCSH BKN050=

USA.gov is the U.S. government's official web portal to all federal, state and local government web resources and services.